createdAt,value
2022-08-01T00:02:11.816Z,53.18
2022-08-01T00:07:13.727Z,53.38
2022-08-01T00:12:15.318Z,53.49
2022-08-01T00:17:17.069Z,53.86
2022-08-01T00:22:18.721Z,53.82
2022-08-01T00:27:20.354Z,53.81
2022-08-01T00:32:22.173Z,53.83
2022-08-01T00:37:23.811Z,54.01
2022-08-01T00:42:25.472Z,53.63
2022-08-01T00:47:27.089Z,53.50
2022-08-01T00:52:28.693Z,53.88
2022-08-01T00:58:02.426Z,53.69
2022-08-01T01:02:52.764Z,54.42
2022-08-01T01:08:00.371Z,55.13
2022-08-01T01:13:20.327Z,55.30
2022-08-01T01:18:25.762Z,55.66
2022-08-01T01:23:51.281Z,55.67
2022-08-01T01:29:04.999Z,56.77
2022-08-01T01:34:07.549Z,55.81
2022-08-01T01:39:09.566Z,55.43
2022-08-01T01:44:12.064Z,55.23
2022-08-01T01:49:14.773Z,54.92
2022-08-01T01:54:16.704Z,55.42
2022-08-01T01:59:25.908Z,56.10
2022-08-01T02:04:29.077Z,56.30
2022-08-01T02:09:33.051Z,56.57
2022-08-01T02:14:38.254Z,56.61
2022-08-01T02:19:40.111Z,57.46
2022-08-01T02:25:06.252Z,57.32
2022-08-01T02:30:09.613Z,57.71
2022-08-01T02:35:18.959Z,57.67
2022-08-01T02:40:21.103Z,56.94
2022-08-01T02:45:25.868Z,55.78
2022-08-01T02:50:30.721Z,59.05
2022-08-01T02:55:34.422Z,58.97
2022-08-01T03:00:37.105Z,59.98
2022-08-01T03:05:41.044Z,59.85
2022-08-01T03:10:45.447Z,59.67
2022-08-01T03:15:48.917Z,58.50
2022-08-01T03:20:52.123Z,58.70
2022-08-01T03:25:54.394Z,58.72
2022-08-01T03:30:56.601Z,59.04
2022-08-01T03:36:01.468Z,59.26
2022-08-01T03:41:09.393Z,59.89
2022-08-01T03:46:18.558Z,59.90
2022-08-01T03:51:23.794Z,60.11
2022-08-01T03:56:26.409Z,60.51
2022-08-01T04:01:30.399Z,59.95
2022-08-01T04:06:32.280Z,60.30
2022-08-01T04:11:35.560Z,60.46
2022-08-01T04:16:38.240Z,59.43
2022-08-01T04:21:39.801Z,58.74
2022-08-01T04:26:44.457Z,58.74
2022-08-01T04:31:49.054Z,58.66
2022-08-01T04:36:53.723Z,58.64
2022-08-01T04:41:59.072Z,58.33
2022-08-01T04:47:04.106Z,59.49
2022-08-01T04:52:07.423Z,61.74
2022-08-01T04:57:10.340Z,62.79
2022-08-01T05:02:19.673Z,63.35
2022-08-01T05:07:21.289Z,63.98
2022-08-01T05:12:22.922Z,65.19
2022-08-01T05:17:24.642Z,65.48
2022-08-01T05:22:26.819Z,67.12
2022-08-01T05:27:28.403Z,67.52
2022-08-01T05:32:32.912Z,67.64
2022-08-01T05:37:34.655Z,67.01
2022-08-01T05:42:36.351Z,66.70
2022-08-01T05:47:38.003Z,67.01
2022-08-01T05:52:44.821Z,66.97
2022-08-01T05:57:46.781Z,65.72
2022-08-01T06:02:48.675Z,65.71
2022-08-01T06:07:50.924Z,66.05
2022-08-01T06:12:53.241Z,66.76
2022-08-01T06:17:55.130Z,66.10
2022-08-01T06:22:56.741Z,66.37
2022-08-01T06:28:02.110Z,66.77
2022-08-01T06:33:04.037Z,67.27
2022-08-01T06:38:05.688Z,67.79
2022-08-01T06:43:07.344Z,68.63
2022-08-01T06:48:09.099Z,74.48
2022-08-01T06:53:10.905Z,79.53
2022-08-01T06:58:12.535Z,82.32
2022-08-01T07:03:14.213Z,88.11
2022-08-01T07:08:15.837Z,91.42
2022-08-01T07:13:24.090Z,91.85
2022-08-01T07:18:38.773Z,93.51
2022-08-01T07:23:45.787Z,95.37
2022-08-01T07:28:47.794Z,92.37
2022-08-01T07:33:49.745Z,92.25
2022-08-01T07:38:51.398Z,92.02
2022-08-01T07:43:57.320Z,94.72
2022-08-01T07:49:01.292Z,92.82
2022-08-01T07:54:03.301Z,90.19
2022-08-01T07:59:05.036Z,88.00
2022-08-01T08:04:07.070Z,86.61
2022-08-01T08:09:08.842Z,86.03
2022-08-01T08:14:11.143Z,85.69
2022-08-01T08:19:13.097Z,82.04
2022-08-01T08:24:20.544Z,81.93
2022-08-01T08:29:30.739Z,76.74
2022-08-01T08:34:33.037Z,77.78
2022-08-01T08:39:42.131Z,75.40
2022-08-01T08:44:44.529Z,76.54
2022-08-01T08:49:47.123Z,73.13
2022-08-01T08:54:52.479Z,72.07
2022-08-01T08:59:55.212Z,69.53
2022-08-01T09:04:57.696Z,65.07
2022-08-01T09:09:59.381Z,65.45
2022-08-01T09:15:01.221Z,64.89
2022-08-01T09:20:02.962Z,67.06
2022-08-01T09:25:13.344Z,61.52
2022-08-01T09:30:23.359Z,60.45
2022-08-01T09:35:45.495Z,59.25
2022-08-01T09:40:55.557Z,54.71
2022-08-01T09:45:58.511Z,55.11
2022-08-01T09:51:04.695Z,53.97
2022-08-01T09:56:12.795Z,53.22
2022-08-01T10:01:14.852Z,54.40
2022-08-01T10:06:24.956Z,55.43
2022-08-01T10:11:36.058Z,54.71
2022-08-01T10:16:39.545Z,54.82
2022-08-01T10:21:53.214Z,55.47
2022-08-01T10:27:08.256Z,53.77
2022-08-01T10:32:11.379Z,55.08
2022-08-01T10:37:14.178Z,60.01
2022-08-01T10:42:18.734Z,66.10
2022-08-01T10:47:51.079Z,66.01
2022-08-01T10:53:23.215Z,65.58
2022-08-01T10:58:42.483Z,63.15
2022-08-01T11:03:59.926Z,62.78
2022-08-01T11:09:16.836Z,56.92
2022-08-01T11:14:26.153Z,52.21
2022-08-01T11:20:07.819Z,53.45
2022-08-01T11:25:09.976Z,51.41
2022-08-01T11:30:15.139Z,50.55
2022-08-01T11:35:18.856Z,48.38
2022-08-01T11:40:25.177Z,50.59
2022-08-01T11:45:48.014Z,67.71
2022-08-01T11:50:54.212Z,72.99
2022-08-01T11:55:56.067Z,73.77
2022-08-01T12:00:59.299Z,73.92
2022-08-01T12:06:01.075Z,72.67
2022-08-01T12:11:04.841Z,75.12
2022-08-01T12:16:09.211Z,69.64
2022-08-01T12:21:11.216Z,62.02
2022-08-01T12:26:29.241Z,63.41
2022-08-01T12:31:37.089Z,60.34
2022-08-01T12:36:39.500Z,59.44
2022-08-01T12:41:44.384Z,57.94
2022-08-01T12:46:46.453Z,57.46
2022-08-01T12:51:57.153Z,57.50
2022-08-01T12:56:59.407Z,57.56
2022-08-01T13:02:09.899Z,55.25
2022-08-01T13:07:11.673Z,53.87
2022-08-01T13:12:14.078Z,53.51
2022-08-01T13:17:31.324Z,51.68
2022-08-01T13:22:38.121Z,51.92
2022-08-01T13:27:39.757Z,50.58
2022-08-01T13:33:01.867Z,48.37
2022-08-01T13:38:03.455Z,48.32
2022-08-01T13:43:05.131Z,49.45
2022-08-01T13:48:12.897Z,48.72
2022-08-01T13:53:20.589Z,48.88
2022-08-01T13:58:22.362Z,49.05
2022-08-01T14:03:33.363Z,48.73
2022-08-01T14:08:35.569Z,48.87
2022-08-01T14:13:45.116Z,48.70
2022-08-01T14:18:48.678Z,48.16
2022-08-01T14:23:50.689Z,48.67
2022-08-01T14:28:52.259Z,50.19
2022-08-01T14:33:53.874Z,50.35
2022-08-01T14:38:55.492Z,50.07
2022-08-01T14:44:02.325Z,48.52
2022-08-01T14:49:04.358Z,48.79
2022-08-01T14:54:06.684Z,48.49
2022-08-01T14:59:20.936Z,49.41
2022-08-01T15:04:23.492Z,48.90
2022-08-01T15:09:25.086Z,49.01
2022-08-01T15:14:45.246Z,48.41
2022-08-01T15:19:48.595Z,49.10
2022-08-01T15:24:56.831Z,49.67
2022-08-01T15:29:59.120Z,48.81
2022-08-01T15:35:01.273Z,48.98
2022-08-01T15:40:03.697Z,49.28
2022-08-01T15:45:05.897Z,48.42
2022-08-01T15:50:07.985Z,47.60
2022-08-01T15:55:09.727Z,46.52
2022-08-01T16:00:13.396Z,46.12
2022-08-01T16:05:17.120Z,46.35
2022-08-01T16:10:22.182Z,47.57
2022-08-01T16:15:36.191Z,48.05
2022-08-01T16:20:45.099Z,47.86
2022-08-01T16:25:47.749Z,48.18
2022-08-01T16:31:12.653Z,47.70
2022-08-01T16:36:16.885Z,47.39
2022-08-01T16:41:19.582Z,47.68
2022-08-01T16:46:26.778Z,47.99
2022-08-01T16:51:28.611Z,48.05
2022-08-01T16:56:34.574Z,47.36
2022-08-01T17:01:58.417Z,47.49
2022-08-01T17:06:58.134Z,48.47
2022-08-01T17:12:00.089Z,46.96
2022-08-01T17:17:01.686Z,47.20
2022-08-01T17:22:03.905Z,47.00
2022-08-01T17:27:09.423Z,47.78
2022-08-01T17:32:14.497Z,49.17
2022-08-01T17:37:16.802Z,48.84
2022-08-01T17:42:18.533Z,48.67
2022-08-01T17:47:48.165Z,49.23
2022-08-01T17:52:46.500Z,50.16
2022-08-01T17:57:48.523Z,50.24
2022-08-01T18:02:50.196Z,49.79
2022-08-01T18:08:00.612Z,50.42
2022-08-01T18:13:04.176Z,50.50
2022-08-01T18:18:08.768Z,50.84
2022-08-01T18:23:11.351Z,51.62
2022-08-01T18:28:29.339Z,51.62
2022-08-01T18:33:35.441Z,52.76
2022-08-01T18:38:37.393Z,53.55
2022-08-01T18:43:46.591Z,53.82
2022-08-01T18:48:48.782Z,53.86
2022-08-01T18:53:52.951Z,54.44
2022-08-01T18:58:55.556Z,54.84
2022-08-01T19:03:58.020Z,55.28
2022-08-01T19:09:02.416Z,55.69
2022-08-01T19:14:04.442Z,56.54
2022-08-01T19:19:09.520Z,56.27
2022-08-01T19:24:17.322Z,56.57
2022-08-01T19:29:46.805Z,56.66
2022-08-01T19:35:12.912Z,57.86
2022-08-01T19:40:26.779Z,56.84
2022-08-01T19:45:29.904Z,57.89
2022-08-01T19:50:33.244Z,58.19
2022-08-01T19:55:39.698Z,58.28
2022-08-01T20:00:42.917Z,60.13
2022-08-01T20:05:45.074Z,60.24
2022-08-01T20:10:47.927Z,60.31
2022-08-01T20:15:52.040Z,59.34
2022-08-01T20:20:54.270Z,59.79
2022-08-01T20:26:00.555Z,60.81
2022-08-01T20:31:05.727Z,61.18
2022-08-01T20:36:12.125Z,61.94
2022-08-01T20:41:27.923Z,61.58
2022-08-01T20:46:29.806Z,62.10
2022-08-01T20:51:31.857Z,62.95
2022-08-01T20:56:43.446Z,63.67
2022-08-01T21:02:17.191Z,64.00
2022-08-01T21:07:24.839Z,64.94
2022-08-01T21:12:30.893Z,63.79
2022-08-01T21:18:07.032Z,63.59
2022-08-01T21:23:27.611Z,64.13
2022-08-01T21:28:29.276Z,64.48
2022-08-01T21:33:31.173Z,64.83
2022-08-01T21:38:33.922Z,65.81
2022-08-01T21:43:37.051Z,66.56
2022-08-01T21:48:39.182Z,67.18
2022-08-01T21:54:18.404Z,65.97
2022-08-01T21:59:32.450Z,66.91
2022-08-01T22:04:48.468Z,67.59
2022-08-01T22:09:50.730Z,67.39
2022-08-01T22:14:55.922Z,66.81
2022-08-01T22:19:58.597Z,67.04
2022-08-01T22:25:00.638Z,67.26
2022-08-01T22:30:05.665Z,68.56
2022-08-01T22:35:12.728Z,69.96
2022-08-01T22:40:14.923Z,70.33
2022-08-01T22:45:19.651Z,70.49
2022-08-01T22:50:36.864Z,70.84
2022-08-01T22:55:58.643Z,72.51
2022-08-01T23:01:02.400Z,73.37
2022-08-01T23:06:10.561Z,72.86
2022-08-01T23:11:12.770Z,73.64
2022-08-01T23:16:17.502Z,73.95
2022-08-01T23:21:19.786Z,74.02
2022-08-01T23:26:23.555Z,74.19
2022-08-01T23:31:57.405Z,73.99
2022-08-01T23:36:48.661Z,74.88
2022-08-01T23:41:58.621Z,76.15
2022-08-01T23:47:01.570Z,76.78
2022-08-01T23:52:04.212Z,76.43
2022-08-01T23:57:05.886Z,75.67
